WetterOnline ( https://www.wetteronline.de )

Wetter aktuell Elzach

Aktuelles Wetter: Freiburg/Flugplatz (236m)

6-stündlich | Neueste Meldungen
Ortszeit Temperatur Wetter
Di, 27.10. 19:00 8.2° C leicht bewölkt
Di, 27.10. 13:00 10.9° C bedeckt
Di, 27.10. 7:00 9.0° C bewölkt
Di, 27.10. 1:00 8.7° C bedeckt
Mo, 26.10. 19:00 9.1° C bewölkt
Mo, 26.10. 13:00 8.9° C leichter Regen
Mo, 26.10. 7:00 9.5° C leichter Regen
Mo, 26.10. 1:00 11.8° C bedeckt
Ortszeit Temperatur Wetter
Di, 27.10. 21:00 10.1° C bedeckt
Di, 27.10. 20:50 10.1° C bedeckt
Di, 27.10. 20:40 10.0° C bewölkt
Di, 27.10. 20:30 7.7° C leicht bewölkt
Di, 27.10. 20:20 7.7° C leicht bewölkt
Di, 27.10. 20:10 7.7° C leicht bewölkt
Di, 27.10. 20:00 7.9° C wolkig
Di, 27.10. 19:30 8.4° C wolkenlos
Di, 27.10. 19:00 8.2° C leicht bewölkt
Di, 27.10. 18:30 8.0° C leicht bewölkt
Di, 27.10. 18:00 9.1° C bedeckt
Ortszeit Relative Feuchte Sichtweite
Di, 27.10. 19:00 74% 70 km
Di, 27.10. 13:00 70% 60 km
Di, 27.10. 7:00 77% 70 km
Di, 27.10. 1:00 79% 70 km
Mo, 26.10. 19:00 78% 70 km
Mo, 26.10. 13:00 84% 15 km
Mo, 26.10. 7:00 95% 7 km
Mo, 26.10. 1:00 94% 19 km
Ortszeit Relative Feuchte Sichtweite
Di, 27.10. 21:00 65% 70 km
Di, 27.10. 20:50 65% -
Di, 27.10. 20:40 66% -
Di, 27.10. 20:30 76% 65 km
Di, 27.10. 20:20 76% -
Di, 27.10. 20:10 76% -
Di, 27.10. 20:00 76% 70 km
Di, 27.10. 19:30 73% 70 km
Di, 27.10. 19:00 74% 70 km
Di, 27.10. 18:30 76% 70 km
Di, 27.10. 18:00 71% 70 km
Ortszeit Niederschlagsmenge Niederschlagsart
Di, 27.10. 19:00 0.1 l/m2 in 12 Std. -
Di, 27.10. 13:00 0.1 l/m2 in 6 Std. Regen
Di, 27.10. 7:00 0.1 l/m2 in 12 Std. Regen
Di, 27.10. 1:00 0.1 l/m2 in 6 Std. Regen
Mo, 26.10. 19:00 5 l/m2 in 12 Std. Regen
Mo, 26.10. 13:00 5 l/m2 in 6 Std. Regen
Mo, 26.10. 7:00 12 l/m2 in 12 Std. Regen
Mo, 26.10. 1:00 0.1 l/m2 in 6 Std. Regen
Ortszeit Niederschlagsmenge Niederschlagsart
Di, 27.10. 21:00 0.0 l/m2 in 1 Std. -
Di, 27.10. 20:50 keine Meldung -
Di, 27.10. 20:40 keine Meldung -
Di, 27.10. 20:30 0.0 l/m2 in 1 Std. -
Di, 27.10. 20:20 keine Meldung -
Di, 27.10. 20:10 keine Meldung -
Di, 27.10. 20:00 0.0 l/m2 in 1 Std. -
Di, 27.10. 19:30 0.0 l/m2 in 1 Std. -
Di, 27.10. 19:00 0.0 l/m2 in 1 Std. -
Di, 27.10. 18:30 0.0 l/m2 in 1 Std. -
Di, 27.10. 18:00 0.0 l/m2 in 1 Std. -
Ortszeit Stärke Spitze Richtung
km/h Bft. km/h Grad Sektor
Di, 27.10. 19:00 13 3 31 170° S
Di, 27.10. 13:00 14 3 40 220° SW
Di, 27.10. 7:00 20 4 31 200° S
Di, 27.10. 1:00 11 2 18 190° S
Mo, 26.10. 19:00 11 2 29 190° S
Mo, 26.10. 13:00 14 3 36 200° S
Mo, 26.10. 7:00 13 3 31 230° SW
Mo, 26.10. 1:00 2 1 13 30° NO
Ortszeit Stärke Spitze Richtung
km/h Bft. km/h Grad Sektor
Di, 27.10. 21:00 19 3 28 180° S
Di, 27.10. 20:50 19 3 - 180° S
Di, 27.10. 20:40 14 3 - 180° S
Di, 27.10. 20:30 7 2 14 180° S
Di, 27.10. 20:20 7 2 - 180° S
Di, 27.10. 20:10 9 2 - 180° S
Di, 27.10. 20:00 11 2 18 180° S
Di, 27.10. 19:30 11 2 18 160° S
Di, 27.10. 19:00 13 3 15 170° S
Di, 27.10. 18:30 13 3 15 170° S
Di, 27.10. 18:00 9 2 17 170° S
Ortszeit Untergrenze Bedeckung Gattung
total tief tief mittel hoch
Di, 27.10. 19:00 4200 m 3/8 3/8 - - -
Di, 27.10. 13:00 810 m 8/8 8/8 - - -
Di, 27.10. 7:00 2100 m 7/8 7/8 - - -
Di, 27.10. 1:00 5100 m 8/8 8/8 - - -
Mo, 26.10. 19:00 1500 m 8/8 5/8 - - -
Mo, 26.10. 13:00 1140 m 7/8 7/8 - - -
Mo, 26.10. 7:00 240 m 8/8 8/8 - - -
Mo, 26.10. 1:00 540 m 8/8 8/8 - - -
Ortszeit Bedeckungsgrad in Achtel und Wolkenuntergrenze
Di, 27.10. 21:00 1(2100m) 8(2400m)
Di, 27.10. 20:50 1(2100m) 8(2400m)
Di, 27.10. 20:40 7(2700m) 7(3300m) 7(10500m)
Di, 27.10. 20:30 3(2700m) 3(10500m) 6(10500m)
Di, 27.10. 20:20 3(2700m) 3(10500m)
Di, 27.10. 20:10 2(3000m)
Di, 27.10. 20:00 4(3000m) 5(4200m)
Di, 27.10. 19:30 keine Wolken
Di, 27.10. 19:00 3(4200m)
Di, 27.10. 18:30 3(9000m)
Di, 27.10. 18:00 7(6300m) 8(6900m) 8(9000m)
Ortszeit Luftdruck NN (hPa) Tendenz (hPa in 3 Std.)
Di, 27.10. 19:00 1013 - 0,2
Di, 27.10. 13:00 1014 + 0,8
Di, 27.10. 7:00 1012 + 1,6
Di, 27.10. 1:00 1011 - 0,1
Mo, 26.10. 19:00 1010 + 1,0
Mo, 26.10. 13:00 1009 + 0,2
Mo, 26.10. 7:00 1007 + 1,8
Mo, 26.10. 1:00 1005 - 0,3
Ortszeit Luftdruck NN (hPa) Tendenz (hPa in 3 Std.)
Di, 27.10. 21:00 1012 - 0,1
Di, 27.10. 20:50 1012 keine Meldung
Di, 27.10. 20:40 1012 keine Meldung
Di, 27.10. 20:30 1013 - 0,1
Di, 27.10. 20:20 1013 keine Meldung
Di, 27.10. 20:10 1013 keine Meldung
Di, 27.10. 20:00 1012 - 0,1
Di, 27.10. 19:30 1013 - 0,1
Di, 27.10. 19:00 1013 - 0,2
Di, 27.10. 18:30 1013 - 0,4
Di, 27.10. 18:00 1013 - 0,4
Ortszeit Schneehöhe (cm)
Di, 27.10. 19:00 0
Di, 27.10. 13:00 0
Di, 27.10. 7:00 0
Di, 27.10. 1:00 0
Mo, 26.10. 19:00 0
Mo, 26.10. 13:00 0
Mo, 26.10. 7:00 0
Mo, 26.10. 1:00 0
Ortszeit Schneehöhe (cm)
Di, 27.10. 21:00 0
Di, 27.10. 20:50 0
Di, 27.10. 20:40 0
Di, 27.10. 20:30 0
Di, 27.10. 20:20 0
Di, 27.10. 20:10 0
Di, 27.10. 20:00 0
Di, 27.10. 19:30 0
Di, 27.10. 19:00 0
Di, 27.10. 18:30 0
Di, 27.10. 18:00 0
Link zu dieser Seite / Seite empfehlen

Das Wetter in ...